createdAt,value
2023-04-29T00:03:39.516Z,68.04
2023-04-29T00:08:43.137Z,67.74
2023-04-29T00:13:46.719Z,67.80
2023-04-29T00:18:51.459Z,67.76
2023-04-29T00:23:54.921Z,67.46
2023-04-29T00:34:00.700Z,67.65
2023-04-29T00:39:04.596Z,68.03
2023-04-29T00:44:08.324Z,68.15
2023-04-29T00:49:15.141Z,68.37
2023-04-29T00:54:19.530Z,68.75
2023-04-29T00:59:24.209Z,68.56
2023-04-29T01:04:29.189Z,68.12
2023-04-29T01:09:44.684Z,66.39
2023-04-29T01:14:55.639Z,66.44
2023-04-29T01:20:03.478Z,66.46
2023-04-29T01:25:09.985Z,66.02
2023-04-29T01:30:46.528Z,65.96
2023-04-29T01:36:09.426Z,65.69
2023-04-29T01:41:17.635Z,66.30
2023-04-29T01:46:24.591Z,66.21
2023-04-29T01:51:34.189Z,68.21
2023-04-29T01:56:40.131Z,68.59
2023-04-29T02:01:59.086Z,68.00
2023-04-29T02:07:04.016Z,68.10
2023-04-29T02:12:10.011Z,68.53
2023-04-29T02:17:13.570Z,68.33
2023-04-29T02:22:19.050Z,68.39
2023-04-29T02:27:24.065Z,68.31
2023-04-29T02:32:27.753Z,67.56
2023-04-29T02:37:31.856Z,67.14
2023-04-29T02:42:36.934Z,67.63
2023-04-29T02:47:40.538Z,66.68
2023-04-29T02:52:44.300Z,67.00
2023-04-29T02:57:49.259Z,66.28
2023-04-29T03:02:53.551Z,66.72
2023-04-29T03:07:57.323Z,67.19
2023-04-29T03:13:02.544Z,66.91
2023-04-29T03:18:08.141Z,67.37
2023-04-29T03:23:11.911Z,67.51
2023-04-29T03:28:16.961Z,67.03
2023-04-29T03:33:20.563Z,67.71
2023-04-29T03:38:26.024Z,67.61
2023-04-29T03:43:32.736Z,67.25
2023-04-29T03:48:36.974Z,68.26
2023-04-29T03:53:41.161Z,67.53
2023-04-29T03:58:46.943Z,67.45
2023-04-29T04:03:51.379Z,67.64
2023-04-29T04:08:55.433Z,67.75
2023-04-29T04:14:05.912Z,67.44
2023-04-29T04:19:09.718Z,68.06
2023-04-29T04:24:16.895Z,68.44
2023-04-29T04:29:21.905Z,69.24
2023-04-29T04:34:52.358Z,70.44
2023-04-29T04:39:56.853Z,72.10
2023-04-29T04:45:03.083Z,73.32
2023-04-29T04:50:24.831Z,74.02
2023-04-29T04:55:29.647Z,73.36
2023-04-29T05:00:34.977Z,72.96
2023-04-29T05:05:39.128Z,73.82
2023-04-29T05:10:44.487Z,74.11
2023-04-29T05:15:50.734Z,73.38
2023-04-29T05:21:00.139Z,72.90
2023-04-29T05:26:04.001Z,72.87
2023-04-29T05:31:09.687Z,73.06
2023-04-29T05:36:13.983Z,72.55
2023-04-29T05:41:17.801Z,71.91
2023-04-29T05:46:38.494Z,71.37
2023-04-29T05:51:42.083Z,71.80
2023-04-29T05:56:47.626Z,71.08
2023-04-29T06:01:52.786Z,71.25
2023-04-29T06:06:58.609Z,71.87
2023-04-29T06:12:21.039Z,71.57
2023-04-29T06:17:29.332Z,70.92
2023-04-29T06:22:33.201Z,71.75
2023-04-29T06:27:36.814Z,70.82
2023-04-29T06:32:42.169Z,70.51
2023-04-29T06:37:45.904Z,70.44
2023-04-29T06:43:24.666Z,70.42
2023-04-29T06:48:49.486Z,70.28
2023-04-29T06:53:53.378Z,69.49
2023-04-29T06:58:57.976Z,68.77
2023-04-29T07:04:02.988Z,68.99
2023-04-29T07:09:06.738Z,68.67
2023-04-29T07:14:10.313Z,67.70
2023-04-29T07:19:15.243Z,66.48
2023-04-29T07:24:18.898Z,67.46
2023-04-29T07:29:24.058Z,65.30
2023-04-29T07:34:28.975Z,67.04
2023-04-29T07:39:32.813Z,66.14
2023-04-29T07:44:36.572Z,66.00
2023-04-29T07:49:41.638Z,65.60
2023-04-29T07:54:45.336Z,65.18
2023-04-29T07:59:52.567Z,65.24
2023-04-29T08:04:58.226Z,65.96
2023-04-29T08:10:02.346Z,65.85
2023-04-29T08:15:08.400Z,65.49
2023-04-29T08:20:15.528Z,65.71
2023-04-29T08:25:19.251Z,65.67
2023-04-29T08:30:22.837Z,64.63
2023-04-29T08:35:27.805Z,65.79
2023-04-29T08:40:31.714Z,64.20
2023-04-29T08:45:36.120Z,64.60
2023-04-29T08:50:42.615Z,64.49
2023-04-29T08:55:47.750Z,64.12
2023-04-29T09:00:52.032Z,64.41
2023-04-29T09:05:59.131Z,64.17
2023-04-29T09:11:02.949Z,63.05
2023-04-29T09:16:12.298Z,64.44
2023-04-29T09:21:22.925Z,63.59
2023-04-29T09:26:27.183Z,63.88
2023-04-29T09:31:30.747Z,63.68
2023-04-29T09:36:42.445Z,64.29
2023-04-29T09:42:02.435Z,63.51
2023-04-29T09:47:07.595Z,62.60
2023-04-29T09:52:13.985Z,62.24
2023-04-29T09:57:19.246Z,61.93
2023-04-29T10:02:25.379Z,61.07
2023-04-29T10:07:30.987Z,61.54
2023-04-29T10:12:36.732Z,61.23
2023-04-29T10:17:47.222Z,61.23
2023-04-29T10:22:55.014Z,60.20
2023-04-29T10:28:01.229Z,60.90
2023-04-29T10:33:06.061Z,59.80
2023-04-29T10:38:19.973Z,60.36
2023-04-29T10:43:25.455Z,58.74
2023-04-29T10:48:29.112Z,58.59
2023-04-29T10:53:34.420Z,59.29
2023-04-29T10:58:46.049Z,59.79
2023-04-29T11:03:55.288Z,57.40
2023-04-29T11:09:05.879Z,58.48
2023-04-29T11:14:11.126Z,57.44
2023-04-29T11:19:19.030Z,57.70
2023-04-29T11:24:24.314Z,58.45
2023-04-29T11:29:28.756Z,57.61
2023-04-29T11:34:32.453Z,57.78
2023-04-29T11:39:37.740Z,58.42
2023-04-29T11:44:41.596Z,57.46
2023-04-29T11:49:45.454Z,57.60
2023-04-29T11:54:50.632Z,56.81
2023-04-29T11:59:55.696Z,57.68
2023-04-29T12:05:01.502Z,56.75
2023-04-29T12:10:10.497Z,58.01
2023-04-29T12:15:14.791Z,57.45
2023-04-29T12:20:18.796Z,56.52
2023-04-29T12:25:29.736Z,56.46
2023-04-29T12:30:36.514Z,55.67
2023-04-29T12:35:40.249Z,55.14
2023-04-29T12:40:47.014Z,56.32
2023-04-29T12:45:50.712Z,56.00
2023-04-29T12:50:58.453Z,56.24
2023-04-29T12:56:03.753Z,56.79
2023-04-29T13:01:07.693Z,55.71
2023-04-29T13:06:11.565Z,55.59
2023-04-29T13:11:16.730Z,56.24
2023-04-29T13:16:20.767Z,56.43
2023-04-29T13:21:24.443Z,55.76
2023-04-29T13:26:30.981Z,55.28
2023-04-29T13:31:34.694Z,56.54
2023-04-29T13:36:38.732Z,55.94
2023-04-29T13:41:45.986Z,55.86
2023-04-29T13:46:52.235Z,54.61
2023-04-29T13:52:47.429Z,55.83
2023-04-29T14:02:28.402Z,54.33
2023-04-29T14:07:32.217Z,53.66
2023-04-29T14:12:37.253Z,54.30
2023-04-29T14:17:40.968Z,54.62
2023-04-29T14:22:49.208Z,53.93
2023-04-29T14:27:54.248Z,53.65
2023-04-29T14:32:57.961Z,54.59
2023-04-29T14:38:06.582Z,54.98
2023-04-29T14:43:11.680Z,54.18
2023-04-29T14:48:15.433Z,54.48
2023-04-29T14:53:19.067Z,55.07
2023-04-29T14:58:25.258Z,54.94
2023-04-29T15:03:29.220Z,54.22
2023-04-29T15:08:42.549Z,55.28
2023-04-29T15:13:47.577Z,54.75
2023-04-29T15:18:53.632Z,55.47
2023-04-29T15:23:57.411Z,54.77
2023-04-29T15:29:05.597Z,54.81
2023-04-29T15:34:09.204Z,54.00
2023-04-29T15:39:15.044Z,54.01
2023-04-29T15:44:19.948Z,54.16
2023-04-29T15:49:24.706Z,54.39
2023-04-29T15:54:28.976Z,54.06
2023-04-29T15:59:36.566Z,53.78
2023-04-29T16:04:40.256Z,54.33
2023-04-29T16:09:44.088Z,54.49
2023-04-29T16:14:49.067Z,54.58
2023-04-29T16:19:53.481Z,54.16
2023-04-29T16:24:57.205Z,54.35
2023-04-29T16:30:02.503Z,54.70
2023-04-29T16:35:06.787Z,54.42
2023-04-29T16:40:11.539Z,55.01
2023-04-29T16:45:17.071Z,55.09
2023-04-29T16:50:20.912Z,54.03
2023-04-29T16:55:24.591Z,54.13
2023-04-29T17:00:29.906Z,54.65
2023-04-29T17:05:34.281Z,54.67
2023-04-29T17:10:38.103Z,54.03
2023-04-29T17:15:43.383Z,54.06
2023-04-29T17:20:48.856Z,54.57
2023-04-29T17:25:56.424Z,55.03
2023-04-29T17:31:02.482Z,54.88
2023-04-29T17:36:07.438Z,54.81
2023-04-29T17:41:11.095Z,54.83
2023-04-29T17:46:16.058Z,55.44
2023-04-29T17:51:19.982Z,55.40
2023-04-29T17:56:23.750Z,55.36
2023-04-29T18:01:28.961Z,56.27
2023-04-29T18:06:32.814Z,55.96
2023-04-29T18:11:36.800Z,56.06
2023-04-29T18:16:41.817Z,56.06
2023-04-29T18:21:45.518Z,56.37
2023-04-29T18:26:49.262Z,55.82
2023-04-29T18:31:55.013Z,55.56
2023-04-29T18:36:58.705Z,55.87
2023-04-29T18:42:02.934Z,56.11
2023-04-29T18:47:07.895Z,56.37
2023-04-29T18:52:11.453Z,56.33
2023-04-29T18:57:15.135Z,57.15
2023-04-29T19:02:20.293Z,58.08
2023-04-29T19:07:24.071Z,57.44
2023-04-29T19:12:27.704Z,58.17
2023-04-29T19:17:32.706Z,58.99
2023-04-29T19:22:36.554Z,58.56
2023-04-29T19:27:44.956Z,59.11
2023-04-29T19:32:50.280Z,58.89
2023-04-29T19:37:54.856Z,58.75
2023-04-29T19:42:58.493Z,59.41
2023-04-29T19:48:03.707Z,58.81
2023-04-29T19:53:07.331Z,59.02
2023-04-29T19:58:10.873Z,59.39
2023-04-29T20:03:16.004Z,59.68
2023-04-29T20:08:19.782Z,59.79
2023-04-29T20:13:23.289Z,59.75
2023-04-29T20:18:28.238Z,60.04
2023-04-29T20:23:32.006Z,60.62
2023-04-29T20:28:35.638Z,60.83
2023-04-29T20:33:40.725Z,60.69
2023-04-29T20:38:44.271Z,61.01
2023-04-29T20:43:47.918Z,60.60
2023-04-29T20:48:53.184Z,60.54
2023-04-29T20:53:56.839Z,60.81
2023-04-29T20:59:00.489Z,61.18
2023-04-29T21:04:05.880Z,60.99
2023-04-29T21:09:10.518Z,60.92
2023-04-29T21:14:14.320Z,61.66
2023-04-29T21:19:19.284Z,61.20
2023-04-29T21:24:23.410Z,61.03
2023-04-29T21:29:27.041Z,61.32
2023-04-29T21:34:31.986Z,61.01
2023-04-29T21:39:35.859Z,61.33
2023-04-29T21:44:39.951Z,61.52
2023-04-29T21:49:45.124Z,60.92
2023-04-29T21:54:48.746Z,61.39
2023-04-29T21:59:52.467Z,60.91
2023-04-29T22:04:57.619Z,60.47
2023-04-29T22:10:01.364Z,60.06
2023-04-29T22:15:09.137Z,59.61
2023-04-29T22:20:22.947Z,60.22
2023-04-29T22:25:26.924Z,59.80
2023-04-29T22:30:30.546Z,59.67
2023-04-29T22:35:35.827Z,59.76
2023-04-29T22:40:39.398Z,59.49
2023-04-29T22:45:43.029Z,60.09
2023-04-29T22:50:53.116Z,59.58
2023-04-29T22:55:58.265Z,59.90
2023-04-29T23:01:02.061Z,59.86
2023-04-29T23:06:07.341Z,60.03
2023-04-29T23:11:11.216Z,59.93
2023-04-29T23:16:15.345Z,60.16
2023-04-29T23:21:20.313Z,60.00
2023-04-29T23:26:24.364Z,60.43
2023-04-29T23:31:28.208Z,59.75
2023-04-29T23:36:33.304Z,59.63
2023-04-29T23:41:36.981Z,59.44
2023-04-29T23:46:40.757Z,60.21
2023-04-29T23:51:45.733Z,59.95
2023-04-29T23:56:49.343Z,60.26
